Time;durP1;ratioP1;P1;durP2;ratioP2;P2;SDS_P1;SDS_P2;PMS_P1;PMS_P2;Temp;Humidity;BMP_temperature;BMP_pressure;BME280_temperature;BME280_humidity;BME280_pressure;Samples;Min_cycle;Max_cycle;Signal;HPM_P1;HPM_P2
2022/08/27 00:02:20;;;;;;;11.80;10.00;;;22.80;99.90;;;;;;6225177;28;20233;-62
2022/08/27 00:05:23;;;;;;;12.87;10.70;;;22.90;99.90;;;;;;6225264;28;20335;-63
2022/08/27 00:08:28;;;;;;;13.30;9.73;;;22.90;99.90;;;;;;6224923;28;20229;-63
2022/08/27 00:11:33;;;;;;;16.50;9.77;;;22.80;99.90;;;;;;6223188;28;20231;-62
2022/08/27 00:14:37;;;;;;;10.90;9.80;;;22.80;99.90;;;;;;6225280;28;20245;-62
2022/08/27 00:17:42;;;;;;;12.13;10.93;;;22.80;99.90;;;;;;6224670;28;20232;-62
2022/08/27 00:20:45;;;;;;;14.77;9.97;;;22.70;99.90;;;;;;6223166;28;20711;-62
2022/08/27 00:23:50;;;;;;;13.40;10.47;;;22.70;99.90;;;;;;6225607;28;20236;-62
2022/08/27 00:26:53;;;;;;;14.43;10.33;;;22.70;99.90;;;;;;6225410;28;20237;-62
2022/08/27 00:29:56;;;;;;;11.97;9.30;;;22.60;99.90;;;;;;6225495;28;20233;-62
2022/08/27 00:32:59;;;;;;;14.23;10.10;;;22.60;99.90;;;;;;6225622;28;20610;-62
2022/08/27 00:36:03;;;;;;;12.07;10.40;;;22.50;99.90;;;;;;6225145;28;20232;-63
2022/08/27 00:39:08;;;;;;;13.60;10.67;;;22.50;99.90;;;;;;6220665;28;20233;-63
2022/08/27 00:42:11;;;;;;;13.17;11.67;;;22.50;99.90;;;;;;6225442;28;20243;-62
2022/08/27 00:45:16;;;;;;;12.70;10.80;;;22.50;99.90;;;;;;6225533;28;20278;-62
2022/08/27 00:48:23;;;;;;;11.47;10.47;;;22.40;99.90;;;;;;6225814;28;20243;-62
2022/08/27 00:51:27;;;;;;;12.27;10.70;;;22.40;99.90;;;;;;6225237;28;20323;-62
2022/08/27 00:54:33;;;;;;;12.10;10.80;;;22.50;99.90;;;;;;6225041;28;20552;-62
2022/08/27 00:57:38;;;;;;;11.17;9.30;;;22.50;99.90;;;;;;6224996;28;20233;-62
2022/08/27 01:00:44;;;;;;;13.00;10.73;;;22.50;99.90;;;;;;6225123;28;20225;-62
2022/08/27 01:03:51;;;;;;;10.97;9.87;;;22.50;99.90;;;;;;6225009;28;20233;-62
2022/08/27 01:06:54;;;;;;;12.10;10.80;;;22.50;99.90;;;;;;6224757;28;20580;-62
2022/08/27 01:10:02;;;;;;;11.60;10.60;;;22.40;99.90;;;;;;6224758;28;20532;-62
2022/08/27 01:13:07;;;;;;;12.47;10.50;;;22.40;99.90;;;;;;6224791;28;20336;-62
2022/08/27 01:16:11;;;;;;;11.17;10.00;;;22.40;99.90;;;;;;6224865;28;20239;-62
2022/08/27 01:19:23;;;;;;;12.80;10.77;;;22.30;99.90;;;;;;6225026;28;20225;-62
2022/08/27 01:22:34;;;;;;;11.07;9.67;;;22.30;99.90;;;;;;6225408;28;20238;-62
2022/08/27 01:25:41;;;;;;;10.50;9.47;;;22.30;99.90;;;;;;6224544;28;20221;-62
2022/08/27 01:28:45;;;;;;;12.40;9.83;;;22.30;99.90;;;;;;6225427;28;20193;-62
2022/08/27 01:31:48;;;;;;;14.60;10.33;;;22.20;99.90;;;;;;6224843;28;20225;-62
2022/08/27 01:34:51;;;;;;;12.60;9.77;;;22.20;99.90;;;;;;6224466;28;20784;-63
2022/08/27 01:37:55;;;;;;;13.03;10.50;;;22.20;99.90;;;;;;6224695;28;20299;-62
2022/08/27 01:41:01;;;;;;;15.23;9.93;;;22.10;99.90;;;;;;6226707;28;20284;-62
2022/08/27 01:44:04;;;;;;;10.57;9.47;;;22.00;99.90;;;;;;6219345;28;20251;-62
2022/08/27 01:47:08;;;;;;;11.87;10.63;;;22.00;99.90;;;;;;6228523;28;20236;-62
2022/08/27 01:50:14;;;;;;;12.37;10.70;;;22.00;99.90;;;;;;6228871;28;20323;-62
2022/08/27 01:53:21;;;;;;;11.43;10.33;;;21.90;99.90;;;;;;6229196;28;20238;-62
2022/08/27 01:56:25;;;;;;;10.30;9.30;;;21.90;99.90;;;;;;6228142;28;20599;-63
2022/08/27 01:59:28;;;;;;;12.87;10.77;;;21.80;99.90;;;;;;6228866;28;20229;-62
2022/08/27 02:02:42;;;;;;;13.40;11.30;;;21.80;99.90;;;;;;6228771;28;20283;-61
2022/08/27 02:05:47;;;;;;;12.53;11.27;;;21.80;99.90;;;;;;6228917;28;20307;-62
2022/08/27 02:08:50;;;;;;;11.57;10.13;;;21.70;99.90;;;;;;6228530;28;20299;-62
2022/08/27 02:11:55;;;;;;;12.63;11.43;;;21.70;99.90;;;;;;6228264;28;20239;-61
2022/08/27 02:14:58;;;;;;;11.50;10.40;;;21.70;99.90;;;;;;6228256;28;20233;-60
2022/08/27 02:18:01;;;;;;;13.57;10.50;;;21.80;99.90;;;;;;6227569;28;20732;-60
2022/08/27 02:21:06;;;;;;;12.17;11.00;;;21.80;99.90;;;;;;6227839;28;20228;-60
2022/08/27 02:24:09;;;;;;;15.87;10.03;;;21.90;99.90;;;;;;6227760;28;20707;-61
2022/08/27 02:27:14;;;;;;;12.60;10.57;;;21.80;99.90;;;;;;6227739;28;20233;-62
2022/08/27 02:30:20;;;;;;;12.10;11.00;;;21.80;99.90;;;;;;6227896;28;20239;-61
2022/08/27 02:33:24;;;;;;;13.30;11.47;;;21.90;99.90;;;;;;6228316;28;20360;-61
2022/08/27 02:36:27;;;;;;;12.90;11.60;;;21.80;99.90;;;;;;6227668;28;20233;-61
2022/08/27 02:39:30;;;;;;;13.53;10.80;;;21.80;99.90;;;;;;6227587;28;20235;-61
2022/08/27 02:42:35;;;;;;;12.57;11.27;;;21.80;99.90;;;;;;6227564;28;20232;-61
2022/08/27 02:45:38;;;;;;;12.67;11.37;;;21.80;99.90;;;;;;6227633;28;20681;-60
2022/08/27 02:48:43;;;;;;;13.20;11.73;;;21.80;99.90;;;;;;6223332;28;20229;-61
2022/08/27 02:51:46;;;;;;;12.20;10.97;;;21.80;99.90;;;;;;6226310;28;20247;-61
2022/08/27 02:54:51;;;;;;;12.13;10.93;;;21.80;99.90;;;;;;6226709;28;20540;-61
2022/08/27 02:57:56;;;;;;;11.17;10.07;;;21.80;99.90;;;;;;6227311;28;20233;-61
2022/08/27 03:01:00;;;;;;;11.53;10.53;;;21.80;99.90;;;;;;6227593;28;20229;-61
2022/08/27 03:04:04;;;;;;;12.30;11.10;;;21.80;99.90;;;;;;6226720;28;20271;-61
2022/08/27 03:07:07;;;;;;;11.17;10.00;;;21.80;99.90;;;;;;6227059;28;20592;-61
2022/08/27 03:10:19;;;;;;;12.20;11.10;;;21.70;99.90;;;;;;6226956;28;20234;-61
2022/08/27 03:13:25;;;;;;;11.00;10.10;;;21.60;99.90;;;;;;6226844;28;20267;-61
2022/08/27 03:16:28;;;;;;;12.10;10.93;;;21.60;99.90;;;;;;6226242;28;20687;-61
2022/08/27 03:19:31;;;;;;;14.80;11.03;;;21.60;99.90;;;;;;6227313;28;20217;-61
2022/08/27 03:22:34;;;;;;;12.87;11.63;;;21.50;99.90;;;;;;6226602;28;20205;-61
2022/08/27 03:25:38;;;;;;;11.90;10.80;;;21.50;99.90;;;;;;6226838;28;20310;-61
2022/08/27 03:28:43;;;;;;;16.90;11.07;;;21.50;99.90;;;;;;6226506;28;20891;-61
2022/08/27 03:31:46;;;;;;;10.70;9.73;;;21.50;99.90;;;;;;6226862;28;20213;-61
2022/08/27 03:34:49;;;;;;;10.93;9.90;;;21.40;99.90;;;;;;6226511;28;20244;-61
2022/08/27 03:37:53;;;;;;;11.30;10.20;;;21.40;99.90;;;;;;6226309;28;20247;-62
2022/08/27 03:40:56;;;;;;;15.17;11.00;;;21.40;99.90;;;;;;6226227;28;20729;-61
2022/08/27 03:44:00;;;;;;;11.63;10.53;;;21.30;99.90;;;;;;6226141;28;20677;-61
2022/08/27 03:47:04;;;;;;;14.53;10.87;;;21.30;99.90;;;;;;6226226;28;20324;-61
2022/08/27 03:50:09;;;;;;;11.93;10.80;;;21.30;99.90;;;;;;6226021;28;20238;-61
2022/08/27 03:53:14;;;;;;;13.20;11.30;;;21.30;99.90;;;;;;6217123;28;20371;-61
2022/08/27 03:56:17;;;;;;;13.63;11.80;;;21.30;99.90;;;;;;6225462;28;20263;-61
2022/08/27 03:59:21;;;;;;;14.10;11.50;;;21.20;99.90;;;;;;6226292;28;20229;-61
2022/08/27 04:02:25;;;;;;;11.40;10.30;;;21.20;99.90;;;;;;6225565;28;20382;-61
2022/08/27 04:05:28;;;;;;;11.70;10.60;;;21.30;99.90;;;;;;6226364;28;20248;-61
2022/08/27 04:08:31;;;;;;;11.57;10.13;;;21.20;99.90;;;;;;6225869;28;20228;-61
2022/08/27 04:11:35;;;;;;;12.57;11.17;;;21.20;99.90;;;;;;6226455;28;20231;-61
2022/08/27 04:14:40;;;;;;;10.63;9.43;;;21.20;99.90;;;;;;6225614;28;20315;-61
2022/08/27 04:17:43;;;;;;;11.43;10.20;;;21.20;99.90;;;;;;6225637;28;20229;-61
2022/08/27 04:20:48;;;;;;;12.80;11.50;;;21.20;99.90;;;;;;6225464;28;20233;-61
2022/08/27 04:23:51;;;;;;;13.33;10.90;;;21.20;99.90;;;;;;6225662;28;20580;-61
2022/08/27 04:26:55;;;;;;;11.00;10.00;;;21.20;99.90;;;;;;6225393;28;20257;-63
2022/08/27 04:30:01;;;;;;;11.73;10.60;;;21.20;99.90;;;;;;6225576;28;20647;-61
2022/08/27 04:33:04;;;;;;;12.37;10.80;;;21.20;99.90;;;;;;6225638;28;20307;-61
2022/08/27 04:36:09;;;;;;;13.33;11.50;;;21.20;99.90;;;;;;6225304;28;20561;-61
2022/08/27 04:39:13;;;;;;;11.27;10.17;;;21.30;99.90;;;;;;6225373;28;20233;-61
2022/08/27 04:42:18;;;;;;;13.83;12.33;;;21.30;99.90;;;;;;6225067;28;20224;-61
2022/08/27 04:45:22;;;;;;;14.70;11.10;;;21.30;99.90;;;;;;6225594;28;20539;-61
2022/08/27 04:48:25;;;;;;;12.20;10.90;;;21.30;99.90;;;;;;6225082;28;20240;-61
2022/08/27 04:51:30;;;;;;;11.30;10.20;;;21.30;99.90;;;;;;6225504;28;20243;-61
2022/08/27 04:54:33;;;;;;;16.60;11.43;;;21.30;99.90;;;;;;6224975;28;20260;-62
2022/08/27 04:57:37;;;;;;;13.67;12.27;;;21.40;99.90;;;;;;6220661;28;20236;-61
2022/08/27 05:00:47;;;;;;;16.30;12.17;;;21.30;99.90;;;;;;6225031;28;20411;-61
2022/08/27 05:03:51;;;;;;;12.57;11.37;;;21.30;99.90;;;;;;6225630;28;20364;-61
2022/08/27 05:06:54;;;;;;;16.33;10.80;;;21.40;99.90;;;;;;6224851;28;20273;-61
2022/08/27 05:09:57;;;;;;;15.17;10.87;;;21.50;99.90;;;;;;6225017;28;20281;-61
2022/08/27 05:13:00;;;;;;;12.03;10.90;;;21.50;99.90;;;;;;6224992;28;20243;-62
2022/08/27 05:16:08;;;;;;;11.37;10.20;;;21.50;99.90;;;;;;6228400;28;20233;-63
2022/08/27 05:19:13;;;;;;;13.10;11.70;;;21.50;99.90;;;;;;6229577;28;20240;-61
2022/08/27 05:22:16;;;;;;;13.27;11.63;;;21.50;99.90;;;;;;6229612;28;20233;-60
2022/08/27 05:25:19;;;;;;;11.67;10.50;;;21.70;99.90;;;;;;6229423;28;20245;-61
2022/08/27 05:28:25;;;;;;;12.20;11.20;;;21.80;99.90;;;;;;6228940;28;20542;-62
2022/08/27 05:31:31;;;;;;;12.20;11.10;;;21.90;99.90;;;;;;6229210;28;20217;-61
2022/08/27 05:34:34;;;;;;;13.30;12.00;;;22.00;99.90;;;;;;6229019;28;20614;-62
2022/08/27 05:37:37;;;;;;;11.40;10.40;;;22.10;99.90;;;;;;6228744;28;20224;-61
2022/08/27 05:40:42;;;;;;;11.53;10.37;;;22.30;99.90;;;;;;6229253;28;20215;-65
2022/08/27 05:43:46;;;;;;;12.80;10.60;;;22.40;99.90;;;;;;6228891;28;20622;-60
2022/08/27 05:46:53;;;;;;;11.83;10.67;;;22.70;99.90;;;;;;6229268;28;20369;-62
2022/08/27 05:49:57;;;;;;;11.23;10.23;;;23.10;99.90;;;;;;6229195;28;20324;-61
2022/08/27 05:53:00;;;;;;;14.93;10.90;;;23.60;99.90;;;;;;6229179;28;20224;-62
2022/08/27 05:56:03;;;;;;;14.00;10.60;;;24.10;99.90;;;;;;6228361;28;20736;-62
2022/08/27 06:02:29;;;;;;;12.87;10.33;;;25.30;99.90;;;;;;6219762;28;20247;-61
2022/08/27 06:05:33;;;;;;;10.57;9.57;;;25.80;99.90;;;;;;6229146;28;20240;-62
2022/08/27 06:08:37;;;;;;;11.13;10.17;;;26.40;99.40;;;;;;6228453;28;20233;-62
2022/08/27 06:11:41;;;;;;;11.10;10.03;;;26.90;97.80;;;;;;6228585;28;20268;-62
2022/08/27 06:14:44;;;;;;;12.17;10.67;;;27.50;95.80;;;;;;6227897;28;20341;-62
2022/08/27 06:17:48;;;;;;;11.60;10.50;;;27.70;94.60;;;;;;6228555;28;20239;-61
2022/08/27 06:20:52;;;;;;;12.90;10.37;;;27.70;94.00;;;;;;6228222;28;20382;-61
2022/08/27 06:23:55;;;;;;;11.63;10.57;;;28.10;93.40;;;;;;6228363;28;20231;-61
2022/08/27 06:26:59;;;;;;;11.40;10.47;;;28.70;92.40;;;;;;6227845;28;20367;-61
2022/08/27 06:30:02;;;;;;;10.80;9.80;;;29.00;90.70;;;;;;6228096;28;20247;-61
2022/08/27 06:33:07;;;;;;;11.13;10.23;;;29.30;90.20;;;;;;6227981;28;20255;-61
2022/08/27 06:36:14;;;;;;;12.13;10.93;;;29.70;89.00;;;;;;6227936;28;20323;-62
2022/08/27 06:39:17;;;;;;;12.17;11.10;;;30.50;85.30;;;;;;6227630;28;20315;-62
2022/08/27 06:42:20;;;;;;;11.18;9.50;;;30.90;83.00;;;;;;6228131;28;20236;-62
2022/08/27 06:45:23;;;;;;;10.05;9.23;;;31.10;80.80;;;;;;6227629;28;20246;-62
2022/08/27 06:48:27;;;;;;;11.25;10.15;;;31.50;79.30;;;;;;6227749;28;20307;-62
2022/08/27 06:51:37;;;;;;;11.68;9.55;;;32.30;76.20;;;;;;6227270;28;20239;-63
2022/08/27 06:54:41;;;;;;;11.18;9.27;;;32.70;73.30;;;;;;6226823;28;20605;-63
2022/08/27 06:57:44;;;;;;;11.38;9.07;;;33.00;71.70;;;;;;6226994;28;20713;-62
2022/08/27 07:00:47;;;;;;;9.55;8.75;;;33.80;68.10;;;;;;6227388;28;20450;-62
2022/08/27 07:03:56;;;;;;;11.38;10.18;;;33.90;65.90;;;;;;6226923;28;20243;-64
2022/08/27 07:07:00;;;;;;;10.52;9.52;;;33.90;64.60;;;;;;6218015;28;20319;-62
2022/08/27 07:10:04;;;;;;;10.02;8.82;;;34.60;63.50;;;;;;6227278;28;20256;-62
2022/08/27 07:13:07;;;;;;;9.80;8.95;;;35.60;59.60;;;;;;6227292;28;20307;-62
2022/08/27 07:16:14;;;;;;;12.25;9.65;;;36.50;57.20;;;;;;6226926;28;20242;-62
2022/08/27 07:19:19;;;;;;;10.80;9.68;;;37.20;54.70;;;;;;6226714;28;20233;-62
2022/08/27 07:22:23;;;;;;;10.02;9.23;;;37.80;52.40;;;;;;6226999;28;20240;-62
2022/08/27 07:25:26;;;;;;;14.98;8.18;;;37.50;51.40;;;;;;6226350;28;20343;-62
2022/08/27 07:28:29;;;;;;;12.23;8.63;;;37.90;50.60;;;;;;6226700;28;20248;-62
2022/08/27 07:31:34;;;;;;;10.00;8.75;;;38.40;49.20;;;;;;6226319;28;20675;-62
2022/08/27 07:34:39;;;;;;;9.77;8.73;;;39.20;47.80;;;;;;6226384;28;20197;-62
2022/08/27 07:37:42;;;;;;;10.52;8.63;;;40.20;45.70;;;;;;6225479;28;20227;-62
2022/08/27 07:40:46;;;;;;;12.40;8.57;;;41.00;43.90;;;;;;6226823;28;20291;-62
2022/08/27 07:47:09;;;;;;;11.57;9.05;;;42.20;41.40;;;;;;6226850;28;20235;-62
2022/08/27 07:50:14;;;;;;;13.73;9.05;;;42.30;40.40;;;;;;6226608;28;20224;-62
2022/08/27 07:53:18;;;;;;;8.60;7.80;;;42.60;39.90;;;;;;6226796;28;20247;-62
2022/08/27 07:56:22;;;;;;;9.77;8.88;;;43.10;38.80;;;;;;6225179;28;20567;-63
2022/08/27 07:59:26;;;;;;;9.95;9.05;;;43.70;37.80;;;;;;6226099;28;20315;-62
2022/08/27 08:02:30;;;;;;;9.20;8.40;;;44.70;36.70;;;;;;6226138;28;20228;-62
2022/08/27 08:05:34;;;;;;;10.25;9.25;;;45.30;35.50;;;;;;6226002;28;20240;-62
2022/08/27 08:08:39;;;;;;;8.88;7.97;;;45.50;34.80;;;;;;6221360;28;20315;-62
2022/08/27 08:11:45;;;;;;;10.38;8.88;;;45.80;34.10;;;;;;6226003;28;20315;-62
2022/08/27 08:14:49;;;;;;;9.90;8.88;;;46.50;33.40;;;;;;6225888;28;20318;-63
2022/08/27 08:17:52;;;;;;;7.97;7.28;;;47.20;33.10;;;;;;6225847;28;20227;-62
2022/08/27 08:21:01;;;;;;;13.15;8.68;;;46.40;32.70;;;;;;6225559;28;20232;-62
2022/08/27 08:24:06;;;;;;;11.32;9.30;;;46.20;33.00;;;;;;6225585;28;20242;-62
2022/08/27 08:27:10;;;;;;;8.93;8.07;;;47.00;32.10;;;;;;6227260;28;20244;-65
2022/08/27 08:30:13;;;;;;;9.57;7.82;;;47.00;31.80;;;;;;6230409;28;20719;-66
2022/08/27 08:33:17;;;;;;;10.30;8.18;;;47.70;31.30;;;;;;6228830;28;20313;-66
2022/08/27 08:36:21;;;;;;;9.65;8.07;;;47.10;31.40;;;;;;6229686;28;20235;-65
2022/08/27 08:39:25;;;;;;;9.25;8.35;;;47.50;31.00;;;;;;6227485;28;20239;-64
2022/08/27 08:42:34;;;;;;;8.65;7.85;;;48.40;30.00;;;;;;6225647;28;20224;-63
2022/08/27 08:45:41;;;;;;;12.15;8.48;;;48.80;29.70;;;;;;6225616;28;20347;-65
2022/08/27 08:48:48;;;;;;;10.43;7.57;;;48.40;29.20;;;;;;6225206;28;20559;-64
2022/08/27 08:51:56;;;;;;;11.88;7.95;;;48.40;29.60;;;;;;6230234;28;20315;-64
2022/08/27 08:55:10;;;;;;;14.40;8.32;;;49.30;29.10;;;;;;6229656;28;20235;-64
2022/08/27 08:58:23;;;;;;;10.18;8.07;;;50.30;28.10;;;;;;6230073;28;20312;-64
2022/08/27 09:01:27;;;;;;;12.70;7.70;;;48.80;29.30;;;;;;6229190;28;20556;-64
2022/08/27 09:04:30;;;;;;;11.15;7.78;;;48.70;29.20;;;;;;6229666;28;20234;-64
2022/08/27 09:07:43;;;;;;;10.20;8.40;;;49.70;28.40;;;;;;6232192;28;20224;-65
2022/08/27 09:10:56;;;;;;;7.50;6.80;;;50.60;27.70;;;;;;6234483;28;20188;-65
2022/08/27 09:14:02;;;;;;;11.93;8.07;;;51.40;26.90;;;;;;6233815;28;20376;-65
2022/08/27 09:17:06;;;;;;;11.57;7.93;;;52.20;26.40;;;;;;6231789;28;20231;-64
2022/08/27 09:20:16;;;;;;;16.90;8.35;;;51.80;26.30;;;;;;6230731;28;20234;-64
2022/08/27 09:23:26;;;;;;;9.65;8.25;;;50.90;26.70;;;;;;6232504;28;20680;-65
2022/08/27 09:26:32;;;;;;;11.82;8.73;;;49.90;27.40;;;;;;6232716;28;20291;-64
2022/08/27 09:29:48;;;;;;;9.77;7.82;;;49.00;28.10;;;;;;6231798;28;20234;-64
2022/08/27 09:32:56;;;;;;;8.65;7.72;;;46.60;30.00;;;;;;6232204;28;20682;-64
2022/08/27 09:36:03;;;;;;;10.18;9.10;;;46.40;30.20;;;;;;6231348;28;20347;-64
2022/08/27 09:39:08;;;;;;;9.93;7.60;;;46.20;30.50;;;;;;6230570;28;20231;-64
2022/08/27 09:42:25;;;;;;;15.60;8.50;;;45.80;30.90;;;;;;6230484;28;20535;-65
2022/08/27 09:45:30;;;;;;;9.80;7.82;;;44.60;31.90;;;;;;6225401;28;20667;-65
2022/08/27 09:48:35;;;;;;;10.35;8.10;;;42.80;33.80;;;;;;6230171;28;20649;-65
2022/08/27 09:51:41;;;;;;;11.45;8.27;;;41.40;36.00;;;;;;6230521;28;20313;-65
2022/08/27 09:54:47;;;;;;;12.20;9.25;;;40.60;37.20;;;;;;6229524;28;20350;-65
2022/08/27 09:57:50;;;;;;;14.98;9.15;;;38.50;40.30;;;;;;6229780;28;20230;-66
2022/08/27 10:01:00;;;;;;;12.52;10.93;;;37.00;43.50;;;;;;6228545;28;20363;-65
2022/08/27 10:04:09;;;;;;;11.98;8.77;;;36.90;43.50;;;;;;6228916;28;20282;-65
2022/08/27 10:07:29;;;;;;;12.82;8.68;;;36.50;44.50;;;;;;6229902;28;20237;-65
2022/08/27 10:10:46;;;;;;;9.63;8.80;;;36.40;45.00;;;;;;6229892;28;20296;-65
2022/08/27 10:13:56;;;;;;;11.90;8.18;;;36.00;45.50;;;;;;6220601;28;20276;-65
2022/08/27 10:17:12;;;;;;;12.65;9.80;;;36.30;45.00;;;;;;6228599;28;20243;-65
2022/08/27 10:20:24;;;;;;;10.20;8.80;;;36.10;45.60;;;;;;6228562;28;20321;-65
2022/08/27 10:23:42;;;;;;;10.70;8.27;;;35.50;46.30;;;;;;6230616;28;20265;-66
2022/08/27 10:26:55;;;;;;;8.90;8.05;;;35.50;46.40;;;;;;6230924;28;20235;-65
2022/08/27 10:30:03;;;;;;;12.25;8.30;;;35.30;46.30;;;;;;6226934;28;20356;-69
2022/08/27 10:33:13;;;;;;;14.90;7.65;;;35.10;47.10;;;;;;6227696;28;20240;-69
2022/08/27 10:36:26;;;;;;;11.48;8.85;;;35.40;46.80;;;;;;6229024;28;20236;-68
2022/08/27 10:39:46;;;;;;;11.50;8.13;;;35.40;46.30;;;;;;6227372;28;20703;-68
2022/08/27 10:43:02;;;;;;;12.85;8.82;;;35.10;46.90;;;;;;6228109;28;20375;-66
2022/08/27 10:46:32;;;;;;;9.55;8.73;;;35.20;46.70;;;;;;6228232;28;20247;-66
2022/08/27 10:49:43;;;;;;;11.93;8.30;;;35.20;46.80;;;;;;6228007;28;20220;-68
2022/08/27 10:52:50;;;;;;;11.70;8.07;;;35.10;46.60;;;;;;6227591;28;20618;-73
2022/08/27 10:56:04;;;;;;;14.75;8.07;;;34.90;47.20;;;;;;6227676;28;20232;-66
2022/08/27 10:59:21;;;;;;;10.70;8.82;;;35.10;46.30;;;;;;6228730;28;20262;-67
2022/08/27 11:02:31;;;;;;;14.90;7.60;;;35.20;46.10;;;;;;6226965;28;20558;-69
2022/08/27 11:05:39;;;;;;;14.95;7.50;;;35.50;45.80;;;;;;6227345;28;20237;-69
2022/08/27 11:08:48;;;;;;;9.13;5.95;;;35.60;44.20;;;;;;6227575;28;20565;-69
2022/08/27 11:11:56;;;;;;;12.57;8.07;;;34.90;45.00;;;;;;6226975;28;20232;-66
2022/08/27 11:15:22;;;;;;;9.32;6.60;;;34.30;45.60;;;;;;6230104;28;20241;-67
2022/08/27 11:18:37;;;;;;;10.48;7.22;;;34.10;45.50;;;;;;6224004;28;20229;-67
2022/08/27 11:21:45;;;;;;;8.13;7.35;;;33.80;47.20;;;;;;6228000;28;20307;-66
2022/08/27 11:24:56;;;;;;;10.82;7.78;;;33.60;48.60;;;;;;6225810;28;20311;-67
2022/08/27 11:28:00;;;;;;;10.13;7.63;;;33.60;49.20;;;;;;6230549;28;20216;-67
2022/08/27 11:31:11;;;;;;;12.75;7.50;;;33.90;48.70;;;;;;6228987;28;20307;-67
2022/08/27 11:34:19;;;;;;;11.30;8.32;;;34.30;47.70;;;;;;6230246;28;20657;-66
2022/08/27 11:37:34;;;;;;;9.95;7.47;;;34.30;48.00;;;;;;6227494;28;20370;-65
2022/08/27 11:40:52;;;;;;;12.02;7.10;;;34.20;48.30;;;;;;6226628;28;20224;-66
2022/08/27 11:43:58;;;;;;;16.52;8.02;;;34.30;48.10;;;;;;6226751;28;20291;-66
2022/08/27 11:47:12;;;;;;;8.57;7.38;;;34.00;48.70;;;;;;6226458;28;20319;-66
2022/08/27 11:50:19;;;;;;;12.32;7.47;;;33.70;48.70;;;;;;6226085;28;20227;-65
2022/08/27 11:53:28;;;;;;;7.72;6.93;;;33.40;49.00;;;;;;6226971;28;20252;-66
2022/08/27 11:56:40;;;;;;;11.80;7.68;;;33.20;49.80;;;;;;6226251;28;20331;-66
2022/08/27 11:59:43;;;;;;;16.35;8.20;;;33.00;50.30;;;;;;6226272;28;20295;-66
2022/08/27 12:02:59;;;;;;;14.13;7.97;;;33.00;53.20;;;;;;6225920;28;20439;-66
2022/08/27 12:06:17;;;;;;;11.73;9.00;;;32.90;53.60;;;;;;6225809;28;20632;-66
2022/08/27 12:09:22;;;;;;;8.63;7.85;;;33.10;54.50;;;;;;6223151;28;20247;-66
2022/08/27 12:12:35;;;;;;;9.95;8.48;;;33.80;53.90;;;;;;6225935;28;20629;-66
2022/08/27 12:15:54;;;;;;;15.02;7.88;;;34.10;54.90;;;;;;6225488;28;20240;-66
2022/08/27 12:19:13;;;;;;;16.05;8.27;;;34.40;54.50;;;;;;6225890;28;20232;-66
2022/08/27 12:22:29;;;;;;;10.18;7.18;;;34.80;52.60;;;;;;6225910;28;20404;-66
2022/08/27 12:25:32;;;;;;;12.23;8.32;;;35.10;52.70;;;;;;6214823;28;20684;-66
2022/08/27 12:28:36;;;;;;;10.38;7.82;;;35.50;51.20;;;;;;6225337;28;20211;-66
2022/08/27 12:31:42;;;;;;;14.73;8.48;;;35.60;49.50;;;;;;6225191;28;20227;-66
2022/08/27 12:34:52;;;;;;;14.48;7.78;;;35.50;49.10;;;;;;6222012;28;20228;-66
2022/08/27 12:38:11;;;;;;;9.40;8.40;;;35.10;49.70;;;;;;6224876;28;20228;-66
2022/08/27 12:41:26;;;;;;;10.38;8.23;;;34.50;50.80;;;;;;6223598;28;20240;-66
2022/08/27 12:44:31;;;;;;;13.50;8.55;;;34.20;51.70;;;;;;6224785;28;20235;-66
2022/08/27 12:47:39;;;;;;;9.40;8.38;;;33.90;52.40;;;;;;6224857;28;20721;-67
2022/08/27 12:50:51;;;;;;;15.48;7.65;;;33.80;53.50;;;;;;6224821;28;20232;-65
2022/08/27 12:54:01;;;;;;;15.30;8.65;;;33.80;53.50;;;;;;6222304;28;20217;-65
2022/08/27 12:57:14;;;;;;;12.30;9.02;;;33.30;54.70;;;;;;6224402;28;20323;-66
2022/08/27 13:00:19;;;;;;;11.75;9.35;;;32.70;57.50;;;;;;6224332;28;20228;-65
2022/08/27 13:03:33;;;;;;;11.07;9.23;;;32.00;60.80;;;;;;6224049;28;20725;-65
2022/08/27 13:06:45;;;;;;;15.05;10.00;;;31.50;63.00;;;;;;6221132;28;20307;-65
2022/08/27 13:09:48;;;;;;;16.65;9.82;;;31.70;64.60;;;;;;6220112;28;20779;-66
2022/08/27 13:13:03;;;;;;;12.00;8.85;;;31.60;65.20;;;;;;6223458;28;20242;-65
2022/08/27 13:16:06;;;;;;;9.85;8.98;;;31.50;67.80;;;;;;6221896;28;20225;-66
2022/08/27 13:19:17;;;;;;;9.63;8.20;;;31.90;68.70;;;;;;6222555;28;20228;-66
2022/08/27 13:22:27;;;;;;;15.85;9.20;;;32.40;64.40;;;;;;6223430;28;20568;-66
2022/08/27 13:25:33;;;;;;;10.95;7.93;;;32.30;63.30;;;;;;6222504;28;20315;-66
2022/08/27 13:28:39;;;;;;;10.75;8.45;;;32.30;62.30;;;;;;6221311;28;20197;-65
2022/08/27 13:31:43;;;;;;;8.27;7.07;;;31.90;60.30;;;;;;6220741;28;20291;-65
2022/08/27 13:34:47;;;;;;;13.02;7.28;;;31.20;60.60;;;;;;6223105;28;20296;-65
2022/08/27 13:37:54;;;;;;;8.13;6.70;;;30.60;61.90;;;;;;6227487;28;20685;-65
2022/08/27 13:41:01;;;;;;;10.20;7.47;;;30.10;63.40;;;;;;6225845;28;20259;-65
2022/08/27 13:44:10;;;;;;;7.50;6.80;;;29.90;63.80;;;;;;6228392;28;20243;-66
2022/08/27 13:47:19;;;;;;;9.23;7.43;;;29.60;63.80;;;;;;6228455;28;20228;-67
2022/08/27 13:50:26;;;;;;;7.60;6.90;;;29.30;64.40;;;;;;6229088;28;20232;-67
2022/08/27 13:57:07;;;;;;;7.97;7.17;;;29.10;66.80;;;;;;6228318;28;20575;-65
2022/08/27 14:00:15;;;;;;;10.20;6.63;;;28.80;66.70;;;;;;6228706;28;20225;-65
2022/08/27 14:03:25;;;;;;;8.03;5.90;;;28.30;66.60;;;;;;6228078;28;20236;-65
2022/08/27 14:06:32;;;;;;;6.70;6.10;;;28.00;66.70;;;;;;6228659;28;20240;-66
2022/08/27 14:09:45;;;;;;;8.80;6.40;;;27.60;67.60;;;;;;6228440;28;20243;-66
2022/08/27 14:13:00;;;;;;;9.60;7.40;;;27.40;68.30;;;;;;6228612;28;20228;-66
2022/08/27 14:16:14;;;;;;;9.23;6.63;;;27.20;68.70;;;;;;6228550;28;20311;-66
2022/08/27 14:19:27;;;;;;;8.43;6.60;;;27.20;69.30;;;;;;6227582;28;20268;-66
2022/08/27 14:22:35;;;;;;;7.70;6.90;;;27.20;69.40;;;;;;6227510;28;20646;-66
2022/08/27 14:25:40;;;;;;;7.60;7.00;;;27.10;70.10;;;;;;6228055;28;20217;-65
2022/08/27 14:28:43;;;;;;;10.13;6.97;;;27.10;70.40;;;;;;6223862;28;20278;-66
2022/08/27 14:31:47;;;;;;;11.07;7.10;;;26.90;70.90;;;;;;6227925;28;20287;-68
2022/08/27 14:34:50;;;;;;;8.50;6.60;;;26.90;71.20;;;;;;6227007;28;20532;-66
2022/08/27 14:37:54;;;;;;;9.90;6.50;;;26.90;74.20;;;;;;6226234;28;20232;-66
2022/08/27 14:40:59;;;;;;;7.97;6.40;;;27.00;73.90;;;;;;6226917;28;20563;-65
2022/08/27 14:44:02;;;;;;;7.53;6.73;;;27.10;73.90;;;;;;6224133;28;20244;-67
2022/08/27 14:47:08;;;;;;;8.27;7.40;;;27.00;74.20;;;;;;6226621;28;20254;-68
2022/08/27 14:50:13;;;;;;;8.10;7.30;;;26.90;74.50;;;;;;6226150;28;20220;-67
2022/08/27 14:53:18;;;;;;;8.20;6.40;;;26.70;75.80;;;;;;6226936;28;21048;-68
2022/08/27 14:56:25;;;;;;;8.67;6.67;;;26.60;75.80;;;;;;6227035;28;20233;-68
2022/08/27 14:59:29;;;;;;;6.60;6.00;;;26.30;75.10;;;;;;6227185;28;20232;-68
2022/08/27 15:02:32;;;;;;;8.07;5.53;;;25.70;76.90;;;;;;6226430;28;20234;-67
2022/08/27 15:05:35;;;;;;;9.00;5.73;;;24.90;80.40;;;;;;6226028;28;20235;-67
2022/08/27 15:08:39;;;;;;;10.43;7.80;;;24.40;82.80;;;;;;6226053;28;20239;-67
2022/08/27 15:11:48;;;;;;;9.10;6.63;;;24.00;91.00;;;;;;6224592;28;20529;-67
2022/08/27 15:14:51;;;;;;;10.60;7.40;;;23.90;94.90;;;;;;6226307;28;20363;-67
2022/08/27 15:17:55;;;;;;;11.80;9.27;;;23.70;96.90;;;;;;6226035;28;20221;-66
2022/08/27 15:20:58;;;;;;;11.60;7.43;;;23.20;99.90;;;;;;6226402;28;20223;-67
2022/08/27 15:24:04;;;;;;;8.40;7.37;;;23.10;99.90;;;;;;6226054;28;20221;-66
2022/08/27 15:27:08;;;;;;;8.07;7.37;;;23.00;99.90;;;;;;6223539;28;20295;-65
2022/08/27 15:30:14;;;;;;;8.50;6.90;;;22.90;99.90;;;;;;6225671;28;20231;-66
2022/08/27 15:33:19;;;;;;;7.93;7.23;;;22.80;99.90;;;;;;6225430;28;20224;-68
2022/08/27 15:36:23;;;;;;;7.50;6.73;;;22.60;99.90;;;;;;6225816;28;20234;-68
2022/08/27 15:39:26;;;;;;;10.30;7.50;;;22.50;99.90;;;;;;6225672;28;20228;-68
2022/08/27 15:42:30;;;;;;;9.33;8.43;;;22.50;99.90;;;;;;6225916;28;20315;-69
2022/08/27 15:45:35;;;;;;;8.83;7.93;;;22.40;99.90;;;;;;6225629;28;20235;-67
2022/08/27 15:48:39;;;;;;;13.43;9.27;;;22.50;99.90;;;;;;6225580;28;20236;-67
2022/08/27 15:51:43;;;;;;;9.13;8.20;;;22.50;99.90;;;;;;6225981;28;20657;-67
2022/08/27 15:54:48;;;;;;;12.47;8.73;;;22.00;99.90;;;;;;6224686;28;20249;-66
2022/08/27 15:57:54;;;;;;;9.47;8.40;;;21.80;99.90;;;;;;6225388;28;20335;-66
2022/08/27 16:01:04;;;;;;;11.27;8.80;;;21.70;99.90;;;;;;6223870;28;20233;-66
2022/08/27 16:04:09;;;;;;;10.70;9.70;;;21.80;99.90;;;;;;6226411;28;20232;-65
2022/08/27 16:07:12;;;;;;;13.70;10.40;;;21.80;99.90;;;;;;6225574;28;20225;-64